sensor_id;sensor_type;location;lat;lon;timestamp;P1;durP1;ratioP1;P2;durP2;ratioP2
3901;SDS011;1966;49.908;9.156;2023-12-07T00:03:04;22.10;;;13.70;;
3901;SDS011;1966;49.908;9.156;2023-12-07T00:08:07;21.37;;;13.87;;
3901;SDS011;1966;49.908;9.156;2023-12-07T00:13:08;23.33;;;13.40;;
3901;SDS011;1966;49.908;9.156;2023-12-07T00:18:07;19.40;;;12.10;;
3901;SDS011;1966;49.908;9.156;2023-12-07T00:23:07;23.10;;;12.90;;
3901;SDS011;1966;49.908;9.156;2023-12-07T00:28:07;20.07;;;12.33;;
3901;SDS011;1966;49.908;9.156;2023-12-07T00:33:06;23.10;;;13.30;;
3901;SDS011;1966;49.908;9.156;2023-12-07T00:38:05;18.73;;;12.33;;
3901;SDS011;1966;49.908;9.156;2023-12-07T00:43:07;18.30;;;11.70;;
3901;SDS011;1966;49.908;9.156;2023-12-07T00:48:07;23.03;;;14.10;;
3901;SDS011;1966;49.908;9.156;2023-12-07T00:53:06;20.60;;;12.43;;
3901;SDS011;1966;49.908;9.156;2023-12-07T00:58:05;19.53;;;12.20;;
3901;SDS011;1966;49.908;9.156;2023-12-07T01:03:06;20.00;;;12.40;;
3901;SDS011;1966;49.908;9.156;2023-12-07T01:08:05;17.00;;;11.00;;
3901;SDS011;1966;49.908;9.156;2023-12-07T01:13:04;20.00;;;11.70;;
3901;SDS011;1966;49.908;9.156;2023-12-07T01:18:03;18.87;;;12.00;;
3901;SDS011;1966;49.908;9.156;2023-12-07T01:23:04;21.00;;;11.30;;
3901;SDS011;1966;49.908;9.156;2023-12-07T01:28:03;19.20;;;11.47;;
3901;SDS011;1966;49.908;9.156;2023-12-07T01:33:03;19.30;;;11.40;;
3901;SDS011;1966;49.908;9.156;2023-12-07T01:38:03;19.50;;;11.40;;
3901;SDS011;1966;49.908;9.156;2023-12-07T01:43:03;20.20;;;12.07;;
3901;SDS011;1966;49.908;9.156;2023-12-07T01:48:02;19.40;;;11.20;;
3901;SDS011;1966;49.908;9.156;2023-12-07T01:53:02;17.23;;;11.47;;
3901;SDS011;1966;49.908;9.156;2023-12-07T01:58:03;16.10;;;10.60;;
3901;SDS011;1966;49.908;9.156;2023-12-07T02:03:03;16.70;;;10.77;;
3901;SDS011;1966;49.908;9.156;2023-12-07T02:08:03;18.87;;;10.70;;
3901;SDS011;1966;49.908;9.156;2023-12-07T02:13:04;15.60;;;10.53;;
3901;SDS011;1966;49.908;9.156;2023-12-07T02:18:06;18.10;;;10.57;;
3901;SDS011;1966;49.908;9.156;2023-12-07T02:23:06;17.07;;;10.27;;
3901;SDS011;1966;49.908;9.156;2023-12-07T02:28:07;14.33;;;8.90;;
3901;SDS011;1966;49.908;9.156;2023-12-07T02:33:07;18.87;;;10.23;;
3901;SDS011;1966;49.908;9.156;2023-12-07T02:38:07;15.93;;;9.87;;
3901;SDS011;1966;49.908;9.156;2023-12-07T02:43:08;17.13;;;9.50;;
3901;SDS011;1966;49.908;9.156;2023-12-07T02:48:08;19.10;;;10.17;;
3901;SDS011;1966;49.908;9.156;2023-12-07T02:53:07;14.47;;;9.60;;
3901;SDS011;1966;49.908;9.156;2023-12-07T02:58:08;18.10;;;9.90;;
3901;SDS011;1966;49.908;9.156;2023-12-07T03:03:07;16.20;;;10.63;;
3901;SDS011;1966;49.908;9.156;2023-12-07T03:08:06;18.30;;;9.97;;
3901;SDS011;1966;49.908;9.156;2023-12-07T03:13:05;15.40;;;9.37;;
3901;SDS011;1966;49.908;9.156;2023-12-07T03:18:06;13.67;;;9.00;;
3901;SDS011;1966;49.908;9.156;2023-12-07T03:23:05;15.37;;;9.20;;
3901;SDS011;1966;49.908;9.156;2023-12-07T03:28:04;14.17;;;9.30;;
3901;SDS011;1966;49.908;9.156;2023-12-07T03:33:05;17.77;;;9.80;;
3901;SDS011;1966;49.908;9.156;2023-12-07T03:38:04;15.17;;;9.53;;
3901;SDS011;1966;49.908;9.156;2023-12-07T03:43:03;14.30;;;8.93;;
3901;SDS011;1966;49.908;9.156;2023-12-07T03:48:03;15.30;;;9.43;;
3901;SDS011;1966;49.908;9.156;2023-12-07T03:53:04;12.60;;;7.53;;
3901;SDS011;1966;49.908;9.156;2023-12-07T03:58:03;13.43;;;8.80;;
3901;SDS011;1966;49.908;9.156;2023-12-07T04:03:02;13.30;;;8.63;;
3901;SDS011;1966;49.908;9.156;2023-12-07T04:08:03;11.63;;;7.60;;
3901;SDS011;1966;49.908;9.156;2023-12-07T04:13:03;12.43;;;8.40;;
3901;SDS011;1966;49.908;9.156;2023-12-07T04:18:02;14.83;;;9.10;;
3901;SDS011;1966;49.908;9.156;2023-12-07T04:23:01;20.03;;;9.83;;
3901;SDS011;1966;49.908;9.156;2023-12-07T04:28:02;15.03;;;9.73;;
3901;SDS011;1966;49.908;9.156;2023-12-07T04:33:01;14.80;;;9.60;;
3901;SDS011;1966;49.908;9.156;2023-12-07T04:38:01;16.73;;;10.20;;
3901;SDS011;1966;49.908;9.156;2023-12-07T04:43:01;16.80;;;9.80;;
3901;SDS011;1966;49.908;9.156;2023-12-07T04:48:00;14.50;;;9.20;;
3901;SDS011;1966;49.908;9.156;2023-12-07T04:53:01;13.67;;;8.60;;
3901;SDS011;1966;49.908;9.156;2023-12-07T04:58:02;13.87;;;8.90;;
3901;SDS011;1966;49.908;9.156;2023-12-07T05:03:01;15.03;;;8.97;;
3901;SDS011;1966;49.908;9.156;2023-12-07T05:08:00;13.43;;;9.00;;
3901;SDS011;1966;49.908;9.156;2023-12-07T05:13:00;15.93;;;9.10;;
3901;SDS011;1966;49.908;9.156;2023-12-07T05:18:00;16.83;;;10.03;;
3901;SDS011;1966;49.908;9.156;2023-12-07T05:23:00;19.80;;;11.27;;
3901;SDS011;1966;49.908;9.156;2023-12-07T05:27:59;14.63;;;9.00;;
3901;SDS011;1966;49.908;9.156;2023-12-07T05:32:58;17.10;;;9.27;;
3901;SDS011;1966;49.908;9.156;2023-12-07T05:37:59;15.63;;;9.77;;
3901;SDS011;1966;49.908;9.156;2023-12-07T05:42:58;17.57;;;9.80;;
3901;SDS011;1966;49.908;9.156;2023-12-07T05:47:57;23.73;;;10.10;;
3901;SDS011;1966;49.908;9.156;2023-12-07T05:52:56;20.77;;;9.60;;
3901;SDS011;1966;49.908;9.156;2023-12-07T05:57:59;17.87;;;9.70;;
3901;SDS011;1966;49.908;9.156;2023-12-07T06:02:58;15.23;;;9.40;;
3901;SDS011;1966;49.908;9.156;2023-12-07T06:07:57;13.97;;;8.50;;
3901;SDS011;1966;49.908;9.156;2023-12-07T06:12:56;15.30;;;9.30;;
3901;SDS011;1966;49.908;9.156;2023-12-07T06:17:59;14.90;;;9.57;;
3901;SDS011;1966;49.908;9.156;2023-12-07T06:22:58;12.40;;;8.30;;
3901;SDS011;1966;49.908;9.156;2023-12-07T06:27:57;15.30;;;8.90;;
3901;SDS011;1966;49.908;9.156;2023-12-07T06:32:56;16.63;;;9.63;;
3901;SDS011;1966;49.908;9.156;2023-12-07T06:37:57;14.93;;;9.97;;
3901;SDS011;1966;49.908;9.156;2023-12-07T06:42:56;19.50;;;10.30;;
3901;SDS011;1966;49.908;9.156;2023-12-07T06:47:55;14.73;;;9.07;;
3901;SDS011;1966;49.908;9.156;2023-12-07T06:52:55;16.17;;;9.27;;
3901;SDS011;1966;49.908;9.156;2023-12-07T06:57:55;13.13;;;8.50;;
3901;SDS011;1966;49.908;9.156;2023-12-07T07:02:55;14.67;;;9.17;;
3901;SDS011;1966;49.908;9.156;2023-12-07T07:07:54;14.70;;;8.77;;
3901;SDS011;1966;49.908;9.156;2023-12-07T07:12:53;16.00;;;10.00;;
3901;SDS011;1966;49.908;9.156;2023-12-07T07:17:54;15.17;;;10.17;;
3901;SDS011;1966;49.908;9.156;2023-12-07T07:22:53;19.50;;;10.90;;
3901;SDS011;1966;49.908;9.156;2023-12-07T07:27:52;17.23;;;10.00;;
3901;SDS011;1966;49.908;9.156;2023-12-07T07:32:53;16.37;;;10.47;;
3901;SDS011;1966;49.908;9.156;2023-12-07T07:37:53;19.50;;;10.90;;
3901;SDS011;1966;49.908;9.156;2023-12-07T07:42:52;20.80;;;10.70;;
3901;SDS011;1966;49.908;9.156;2023-12-07T07:47:51;18.47;;;10.97;;
3901;SDS011;1966;49.908;9.156;2023-12-07T07:52:53;21.17;;;11.47;;
3901;SDS011;1966;49.908;9.156;2023-12-07T07:57:53;24.13;;;12.73;;
3901;SDS011;1966;49.908;9.156;2023-12-07T08:02:53;21.00;;;11.93;;
3901;SDS011;1966;49.908;9.156;2023-12-07T08:07:53;23.57;;;12.47;;
3901;SDS011;1966;49.908;9.156;2023-12-07T08:12:53;27.37;;;14.30;;
3901;SDS011;1966;49.908;9.156;2023-12-07T08:17:52;27.77;;;13.00;;
3901;SDS011;1966;49.908;9.156;2023-12-07T08:22:51;38.80;;;14.50;;
3901;SDS011;1966;49.908;9.156;2023-12-07T08:27:52;47.67;;;15.83;;
3901;SDS011;1966;49.908;9.156;2023-12-07T08:32:51;25.37;;;14.30;;
3901;SDS011;1966;49.908;9.156;2023-12-07T08:37:50;27.90;;;13.30;;
3901;SDS011;1966;49.908;9.156;2023-12-07T08:42:51;37.23;;;14.10;;
3901;SDS011;1966;49.908;9.156;2023-12-07T08:47:50;42.87;;;16.63;;
3901;SDS011;1966;49.908;9.156;2023-12-07T08:52:49;52.43;;;16.80;;
3901;SDS011;1966;49.908;9.156;2023-12-07T08:57:49;29.07;;;14.37;;
3901;SDS011;1966;49.908;9.156;2023-12-07T09:02:49;43.10;;;20.67;;
3901;SDS011;1966;49.908;9.156;2023-12-07T09:07:49;34.83;;;17.10;;
3901;SDS011;1966;49.908;9.156;2023-12-07T09:12:49;23.50;;;12.87;;
3901;SDS011;1966;49.908;9.156;2023-12-07T09:17:49;24.33;;;13.00;;
3901;SDS011;1966;49.908;9.156;2023-12-07T09:22:48;21.60;;;12.67;;
3901;SDS011;1966;49.908;9.156;2023-12-07T09:27:48;21.93;;;13.50;;
3901;SDS011;1966;49.908;9.156;2023-12-07T09:32:47;26.43;;;12.67;;
3901;SDS011;1966;49.908;9.156;2023-12-07T09:37:48;22.33;;;12.83;;
3901;SDS011;1966;49.908;9.156;2023-12-07T09:42:47;23.67;;;13.20;;
3901;SDS011;1966;49.908;9.156;2023-12-07T09:47:47;19.93;;;11.83;;
3901;SDS011;1966;49.908;9.156;2023-12-07T09:52:48;22.97;;;13.43;;
3901;SDS011;1966;49.908;9.156;2023-12-07T09:57:48;23.90;;;13.07;;
3901;SDS011;1966;49.908;9.156;2023-12-07T10:02:48;23.40;;;13.20;;
3901;SDS011;1966;49.908;9.156;2023-12-07T10:07:49;23.97;;;14.00;;
3901;SDS011;1966;49.908;9.156;2023-12-07T10:12:51;22.23;;;13.90;;
3901;SDS011;1966;49.908;9.156;2023-12-07T10:17:51;24.90;;;14.23;;
3901;SDS011;1966;49.908;9.156;2023-12-07T10:23:01;21.30;;;12.67;;
3901;SDS011;1966;49.908;9.156;2023-12-07T10:28:01;21.53;;;12.30;;
3901;SDS011;1966;49.908;9.156;2023-12-07T10:33:04;18.37;;;11.70;;
3901;SDS011;1966;49.908;9.156;2023-12-07T10:38:06;26.43;;;14.27;;
3901;SDS011;1966;49.908;9.156;2023-12-07T10:43:06;19.90;;;12.70;;
3901;SDS011;1966;49.908;9.156;2023-12-07T10:48:09;27.00;;;14.10;;
3901;SDS011;1966;49.908;9.156;2023-12-07T10:53:10;27.70;;;14.93;;
3901;SDS011;1966;49.908;9.156;2023-12-07T10:58:10;29.43;;;15.10;;
3901;SDS011;1966;49.908;9.156;2023-12-07T11:03:10;25.23;;;13.93;;
3901;SDS011;1966;49.908;9.156;2023-12-07T11:08:12;25.70;;;14.77;;
3901;SDS011;1966;49.908;9.156;2023-12-07T11:13:16;25.63;;;14.03;;
3901;SDS011;1966;49.908;9.156;2023-12-07T11:18:16;20.03;;;12.67;;
3901;SDS011;1966;49.908;9.156;2023-12-07T11:23:17;22.37;;;12.40;;
3901;SDS011;1966;49.908;9.156;2023-12-07T11:28:17;16.20;;;11.00;;
3901;SDS011;1966;49.908;9.156;2023-12-07T11:33:16;18.63;;;11.23;;
3901;SDS011;1966;49.908;9.156;2023-12-07T11:38:17;18.73;;;10.63;;
3901;SDS011;1966;49.908;9.156;2023-12-07T11:43:17;15.03;;;10.03;;
3901;SDS011;1966;49.908;9.156;2023-12-07T11:48:16;15.60;;;9.57;;
3901;SDS011;1966;49.908;9.156;2023-12-07T11:53:21;15.37;;;9.20;;
3901;SDS011;1966;49.908;9.156;2023-12-07T11:58:21;14.67;;;9.50;;
3901;SDS011;1966;49.908;9.156;2023-12-07T12:03:20;12.33;;;8.27;;
3901;SDS011;1966;49.908;9.156;2023-12-07T12:08:21;14.50;;;8.90;;
3901;SDS011;1966;49.908;9.156;2023-12-07T12:13:20;15.80;;;9.67;;
3901;SDS011;1966;49.908;9.156;2023-12-07T12:18:24;15.50;;;10.03;;
3901;SDS011;1966;49.908;9.156;2023-12-07T12:23:25;12.90;;;8.33;;
3901;SDS011;1966;49.908;9.156;2023-12-07T12:28:25;14.67;;;9.27;;
3901;SDS011;1966;49.908;9.156;2023-12-07T12:33:24;14.93;;;10.70;;
3901;SDS011;1966;49.908;9.156;2023-12-07T12:38:23;14.23;;;9.20;;
3901;SDS011;1966;49.908;9.156;2023-12-07T12:43:24;13.27;;;9.47;;
3901;SDS011;1966;49.908;9.156;2023-12-07T12:48:23;12.50;;;8.20;;
3901;SDS011;1966;49.908;9.156;2023-12-07T12:53:22;11.60;;;8.10;;
3901;SDS011;1966;49.908;9.156;2023-12-07T12:58:24;10.90;;;8.17;;
3901;SDS011;1966;49.908;9.156;2023-12-07T13:03:24;10.50;;;8.10;;
3901;SDS011;1966;49.908;9.156;2023-12-07T13:08:23;13.23;;;8.60;;
3901;SDS011;1966;49.908;9.156;2023-12-07T13:13:22;14.40;;;10.10;;
3901;SDS011;1966;49.908;9.156;2023-12-07T13:18:23;13.53;;;8.17;;
3901;SDS011;1966;49.908;9.156;2023-12-07T13:23:22;16.60;;;10.87;;
3901;SDS011;1966;49.908;9.156;2023-12-07T13:28:21;9.23;;;6.97;;
3901;SDS011;1966;49.908;9.156;2023-12-07T13:33:22;14.10;;;9.40;;
3901;SDS011;1966;49.908;9.156;2023-12-07T13:38:22;10.10;;;6.90;;
3901;SDS011;1966;49.908;9.156;2023-12-07T13:43:22;13.93;;;8.37;;
3901;SDS011;1966;49.908;9.156;2023-12-07T13:48:23;13.70;;;8.80;;
3901;SDS011;1966;49.908;9.156;2023-12-07T13:53:22;9.70;;;7.10;;
3901;SDS011;1966;49.908;9.156;2023-12-07T13:58:22;11.50;;;6.93;;
3901;SDS011;1966;49.908;9.156;2023-12-07T14:03:21;12.60;;;8.17;;
3901;SDS011;1966;49.908;9.156;2023-12-07T14:08:22;10.80;;;7.47;;
3901;SDS011;1966;49.908;9.156;2023-12-07T14:13:24;12.40;;;7.37;;
3901;SDS011;1966;49.908;9.156;2023-12-07T14:18:23;10.83;;;7.43;;
3901;SDS011;1966;49.908;9.156;2023-12-07T14:23:24;10.97;;;6.90;;
3901;SDS011;1966;49.908;9.156;2023-12-07T14:28:23;10.43;;;7.10;;
3901;SDS011;1966;49.908;9.156;2023-12-07T14:33:22;12.40;;;6.63;;
3901;SDS011;1966;49.908;9.156;2023-12-07T14:38:21;9.23;;;6.70;;
3901;SDS011;1966;49.908;9.156;2023-12-07T14:43:22;8.93;;;7.00;;
3901;SDS011;1966;49.908;9.156;2023-12-07T14:48:22;10.97;;;7.40;;
3901;SDS011;1966;49.908;9.156;2023-12-07T14:53:21;12.13;;;7.67;;
3901;SDS011;1966;49.908;9.156;2023-12-07T14:58:24;14.70;;;8.40;;
3901;SDS011;1966;49.908;9.156;2023-12-07T15:03:24;11.23;;;7.23;;
3901;SDS011;1966;49.908;9.156;2023-12-07T15:08:23;11.37;;;7.70;;
3901;SDS011;1966;49.908;9.156;2023-12-07T15:13:22;10.67;;;7.10;;
3901;SDS011;1966;49.908;9.156;2023-12-07T15:18:23;17.13;;;10.27;;
3901;SDS011;1966;49.908;9.156;2023-12-07T15:23:23;11.60;;;7.10;;
3901;SDS011;1966;49.908;9.156;2023-12-07T15:28:22;15.43;;;7.60;;
3901;SDS011;1966;49.908;9.156;2023-12-07T15:33:21;12.40;;;7.60;;
3901;SDS011;1966;49.908;9.156;2023-12-07T15:38:22;13.40;;;7.70;;
3901;SDS011;1966;49.908;9.156;2023-12-07T15:43:22;13.87;;;8.47;;
3901;SDS011;1966;49.908;9.156;2023-12-07T15:48:21;18.47;;;10.50;;
3901;SDS011;1966;49.908;9.156;2023-12-07T15:53:22;17.40;;;9.87;;
3901;SDS011;1966;49.908;9.156;2023-12-07T15:58:21;18.50;;;10.70;;
3901;SDS011;1966;49.908;9.156;2023-12-07T16:03:20;15.40;;;9.93;;
3901;SDS011;1966;49.908;9.156;2023-12-07T16:08:19;16.87;;;10.60;;
3901;SDS011;1966;49.908;9.156;2023-12-07T16:13:20;15.87;;;9.37;;
3901;SDS011;1966;49.908;9.156;2023-12-07T16:18:19;16.43;;;10.00;;
3901;SDS011;1966;49.908;9.156;2023-12-07T16:23:18;17.57;;;9.87;;
3901;SDS011;1966;49.908;9.156;2023-12-07T16:28:18;17.33;;;9.73;;
3901;SDS011;1966;49.908;9.156;2023-12-07T16:33:20;17.67;;;9.73;;
3901;SDS011;1966;49.908;9.156;2023-12-07T16:38:19;19.17;;;10.10;;
3901;SDS011;1966;49.908;9.156;2023-12-07T16:43:18;19.20;;;10.40;;
3901;SDS011;1966;49.908;9.156;2023-12-07T16:48:17;20.67;;;10.87;;
3901;SDS011;1966;49.908;9.156;2023-12-07T16:53:18;20.47;;;11.53;;
3901;SDS011;1966;49.908;9.156;2023-12-07T16:58:17;19.83;;;12.37;;
3901;SDS011;1966;49.908;9.156;2023-12-07T17:03:17;21.63;;;12.67;;
3901;SDS011;1966;49.908;9.156;2023-12-07T17:08:19;24.70;;;12.80;;
3901;SDS011;1966;49.908;9.156;2023-12-07T17:13:19;24.13;;;12.30;;
3901;SDS011;1966;49.908;9.156;2023-12-07T17:18:18;24.90;;;14.23;;
3901;SDS011;1966;49.908;9.156;2023-12-07T17:23:19;26.30;;;14.63;;
3901;SDS011;1966;49.908;9.156;2023-12-07T17:28:18;27.67;;;15.40;;
3901;SDS011;1966;49.908;9.156;2023-12-07T17:33:18;30.17;;;16.10;;
3901;SDS011;1966;49.908;9.156;2023-12-07T17:38:19;32.97;;;16.83;;
3901;SDS011;1966;49.908;9.156;2023-12-07T17:43:18;33.10;;;17.47;;
3901;SDS011;1966;49.908;9.156;2023-12-07T17:48:17;33.50;;;17.67;;
3901;SDS011;1966;49.908;9.156;2023-12-07T17:53:16;31.40;;;13.80;;
3901;SDS011;1966;49.908;9.156;2023-12-07T17:58:17;41.10;;;17.53;;
3901;SDS011;1966;49.908;9.156;2023-12-07T18:03:16;33.27;;;17.57;;
3901;SDS011;1966;49.908;9.156;2023-12-07T18:08:15;34.30;;;16.87;;
3901;SDS011;1966;49.908;9.156;2023-12-07T18:13:16;39.73;;;18.07;;
3901;SDS011;1966;49.908;9.156;2023-12-07T18:18:17;32.27;;;15.70;;
3901;SDS011;1966;49.908;9.156;2023-12-07T18:23:16;29.93;;;15.53;;
3901;SDS011;1966;49.908;9.156;2023-12-07T18:28:17;29.00;;;15.53;;
3901;SDS011;1966;49.908;9.156;2023-12-07T18:33:16;30.00;;;15.80;;
3901;SDS011;1966;49.908;9.156;2023-12-07T18:38:16;30.50;;;16.13;;
3901;SDS011;1966;49.908;9.156;2023-12-07T18:43:17;32.57;;;15.73;;
3901;SDS011;1966;49.908;9.156;2023-12-07T18:48:16;30.37;;;16.80;;
3901;SDS011;1966;49.908;9.156;2023-12-07T18:53:15;33.53;;;17.47;;
3901;SDS011;1966;49.908;9.156;2023-12-07T18:58:15;29.40;;;15.07;;
3901;SDS011;1966;49.908;9.156;2023-12-07T19:03:15;31.67;;;15.67;;
3901;SDS011;1966;49.908;9.156;2023-12-07T19:08:14;27.50;;;14.47;;
3901;SDS011;1966;49.908;9.156;2023-12-07T19:13:14;30.27;;;17.00;;
3901;SDS011;1966;49.908;9.156;2023-12-07T19:18:13;30.93;;;16.60;;
3901;SDS011;1966;49.908;9.156;2023-12-07T19:23:14;33.33;;;16.10;;
3901;SDS011;1966;49.908;9.156;2023-12-07T19:28:13;33.20;;;15.53;;
3901;SDS011;1966;49.908;9.156;2023-12-07T19:33:12;28.20;;;14.30;;
3901;SDS011;1966;49.908;9.156;2023-12-07T19:38:11;31.20;;;15.30;;
3901;SDS011;1966;49.908;9.156;2023-12-07T19:43:12;26.03;;;15.07;;
3901;SDS011;1966;49.908;9.156;2023-12-07T19:48:11;29.43;;;15.80;;
3901;SDS011;1966;49.908;9.156;2023-12-07T19:53:11;38.43;;;20.17;;
3901;SDS011;1966;49.908;9.156;2023-12-07T19:58:10;32.83;;;17.33;;
3901;SDS011;1966;49.908;9.156;2023-12-07T20:03:10;31.67;;;17.13;;
3901;SDS011;1966;49.908;9.156;2023-12-07T20:08:10;28.40;;;14.90;;
3901;SDS011;1966;49.908;9.156;2023-12-07T20:13:09;22.47;;;12.90;;
3901;SDS011;1966;49.908;9.156;2023-12-07T20:18:08;26.33;;;14.40;;
3901;SDS011;1966;49.908;9.156;2023-12-07T20:23:09;25.73;;;14.50;;
3901;SDS011;1966;49.908;9.156;2023-12-07T20:28:09;34.67;;;18.50;;
3901;SDS011;1966;49.908;9.156;2023-12-07T20:33:08;30.93;;;15.80;;
3901;SDS011;1966;49.908;9.156;2023-12-07T20:38:07;27.70;;;15.13;;
3901;SDS011;1966;49.908;9.156;2023-12-07T20:43:08;27.10;;;14.67;;
3901;SDS011;1966;49.908;9.156;2023-12-07T20:48:07;23.57;;;13.43;;
3901;SDS011;1966;49.908;9.156;2023-12-07T20:53:07;24.17;;;14.03;;
3901;SDS011;1966;49.908;9.156;2023-12-07T20:58:06;23.50;;;12.40;;
3901;SDS011;1966;49.908;9.156;2023-12-07T21:03:08;22.90;;;12.57;;
3901;SDS011;1966;49.908;9.156;2023-12-07T21:08:07;22.60;;;12.20;;
3901;SDS011;1966;49.908;9.156;2023-12-07T21:13:07;23.07;;;13.67;;
3901;SDS011;1966;49.908;9.156;2023-12-07T21:18:08;21.30;;;12.53;;
3901;SDS011;1966;49.908;9.156;2023-12-07T21:23:07;21.60;;;11.57;;
3901;SDS011;1966;49.908;9.156;2023-12-07T21:28:06;21.83;;;11.03;;
3901;SDS011;1966;49.908;9.156;2023-12-07T21:33:05;20.50;;;11.27;;
3901;SDS011;1966;49.908;9.156;2023-12-07T21:38:06;18.90;;;10.67;;
3901;SDS011;1966;49.908;9.156;2023-12-07T21:43:05;19.23;;;10.57;;
3901;SDS011;1966;49.908;9.156;2023-12-07T21:48:04;16.83;;;10.50;;
3901;SDS011;1966;49.908;9.156;2023-12-07T21:53:04;17.70;;;10.60;;
3901;SDS011;1966;49.908;9.156;2023-12-07T21:58:04;18.00;;;10.57;;
3901;SDS011;1966;49.908;9.156;2023-12-07T22:03:03;16.17;;;10.13;;
3901;SDS011;1966;49.908;9.156;2023-12-07T22:08:03;16.27;;;11.33;;
3901;SDS011;1966;49.908;9.156;2023-12-07T22:13:02;15.50;;;11.27;;
3901;SDS011;1966;49.908;9.156;2023-12-07T22:18:03;20.53;;;11.60;;
3901;SDS011;1966;49.908;9.156;2023-12-07T22:23:02;21.23;;;12.10;;
3901;SDS011;1966;49.908;9.156;2023-12-07T22:28:01;23.27;;;12.53;;
3901;SDS011;1966;49.908;9.156;2023-12-07T22:33:00;20.60;;;12.17;;
3901;SDS011;1966;49.908;9.156;2023-12-07T22:38:01;22.10;;;12.40;;
3901;SDS011;1966;49.908;9.156;2023-12-07T22:43:00;21.27;;;12.20;;
3901;SDS011;1966;49.908;9.156;2023-12-07T22:47:59;30.07;;;12.80;;
3901;SDS011;1966;49.908;9.156;2023-12-07T22:52:59;19.23;;;11.57;;
3901;SDS011;1966;49.908;9.156;2023-12-07T22:57:59;19.50;;;10.67;;
3901;SDS011;1966;49.908;9.156;2023-12-07T23:03:00;21.93;;;12.27;;
3901;SDS011;1966;49.908;9.156;2023-12-07T23:07:59;20.20;;;11.90;;
3901;SDS011;1966;49.908;9.156;2023-12-07T23:13:00;18.03;;;10.50;;
3901;SDS011;1966;49.908;9.156;2023-12-07T23:17:59;28.40;;;11.93;;
3901;SDS011;1966;49.908;9.156;2023-12-07T23:22:58;20.50;;;11.63;;
3901;SDS011;1966;49.908;9.156;2023-12-07T23:27:57;20.37;;;12.80;;
3901;SDS011;1966;49.908;9.156;2023-12-07T23:32:58;20.57;;;12.60;;
3901;SDS011;1966;49.908;9.156;2023-12-07T23:37:57;19.53;;;12.67;;
3901;SDS011;1966;49.908;9.156;2023-12-07T23:42:56;22.27;;;12.97;;
3901;SDS011;1966;49.908;9.156;2023-12-07T23:47:55;17.93;;;11.30;;
3901;SDS011;1966;49.908;9.156;2023-12-07T23:52:56;22.60;;;13.60;;
3901;SDS011;1966;49.908;9.156;2023-12-07T23:57:56;22.27;;;11.90;;
